Saint Paul, Oregon
Current Conditions -  °F | °C
As of 1:26 AM on Sunday 23 Nov 2014 (Local Time) from KMMV Reporting Station
Broken Clouds Broken Clouds  
Wind Chill: 43°   Ceiling: 2900
Heat Index: 47°   Visibility: 10mi
Dew Point: 44°   Wind: 8mph
Humidity: 90%   Direction: 230°SW
Pressure: 30.29"   Gusts: NA
Location:  45.21°N, 122.98°W
Report Text: KMMV 230926Z AUTO 23007KT 10SM BKN029 BKN040 08/07 A3029 RMK AO2 RAE13 P0000 T00830067 $
Loading
Personal Weather Stations






























Interactive Weather Map New forecast layout! Learn more

10-Day Weather Forecast

Advertisements
Track Severe Weather on mobile